sensor_id;sensor_type;location;lat;lon;timestamp;P1;durP1;ratioP1;P2;durP2;ratioP2
53401;SDS011;39295;45.534;20.034;2023-02-12T00:01:21;62.78;;;35.80;;
53401;SDS011;39295;45.534;20.034;2023-02-12T00:14:04;60.70;;;34.72;;
53401;SDS011;39295;45.534;20.034;2023-02-12T00:16:30;62.40;;;34.20;;
53401;SDS011;39295;45.534;20.034;2023-02-12T00:18:56;60.72;;;33.70;;
53401;SDS011;39295;45.534;20.034;2023-02-12T00:21:22;61.88;;;34.13;;
53401;SDS011;39295;45.534;20.034;2023-02-12T00:23:49;57.47;;;32.10;;
53401;SDS011;39295;45.534;20.034;2023-02-12T00:26:16;55.53;;;32.30;;
53401;SDS011;39295;45.534;20.034;2023-02-12T00:28:42;58.10;;;32.20;;
53401;SDS011;39295;45.534;20.034;2023-02-12T00:31:10;58.38;;;32.35;;
53401;SDS011;39295;45.534;20.034;2023-02-12T00:36:25;55.88;;;32.58;;
53401;SDS011;39295;45.534;20.034;2023-02-12T00:39:02;60.65;;;32.90;;
53401;SDS011;39295;45.534;20.034;2023-02-12T00:41:28;57.70;;;33.05;;
53401;SDS011;39295;45.534;20.034;2023-02-12T00:43:55;63.78;;;33.88;;
53401;SDS011;39295;45.534;20.034;2023-02-12T00:46:21;68.95;;;36.47;;
53401;SDS011;39295;45.534;20.034;2023-02-12T00:49:32;55.17;;;32.78;;
53401;SDS011;39295;45.534;20.034;2023-02-12T00:52:02;55.75;;;31.77;;
53401;SDS011;39295;45.534;20.034;2023-02-12T00:54:28;54.53;;;30.13;;
53401;SDS011;39295;45.534;20.034;2023-02-12T00:56:57;49.13;;;30.65;;
53401;SDS011;39295;45.534;20.034;2023-02-12T00:59:24;55.80;;;31.23;;
53401;SDS011;39295;45.534;20.034;2023-02-12T01:01:51;49.22;;;29.00;;
53401;SDS011;39295;45.534;20.034;2023-02-12T01:10:28;53.40;;;29.90;;
53401;SDS011;39295;45.534;20.034;2023-02-12T01:12:54;51.55;;;29.30;;
53401;SDS011;39295;45.534;20.034;2023-02-12T01:15:21;49.83;;;29.58;;
53401;SDS011;39295;45.534;20.034;2023-02-12T01:17:47;51.40;;;29.35;;
53401;SDS011;39295;45.534;20.034;2023-02-12T01:26:23;50.30;;;28.83;;
53401;SDS011;39295;45.534;20.034;2023-02-12T01:28:53;49.55;;;29.27;;
53401;SDS011;39295;45.534;20.034;2023-02-12T01:31:20;51.50;;;28.42;;
53401;SDS011;39295;45.534;20.034;2023-02-12T01:36:57;58.30;;;30.42;;
53401;SDS011;39295;45.534;20.034;2023-02-12T01:39:23;58.45;;;31.35;;
53401;SDS011;39295;45.534;20.034;2023-02-12T01:41:51;72.10;;;35.08;;
53401;SDS011;39295;45.534;20.034;2023-02-12T01:44:43;60.00;;;31.25;;
53401;SDS011;39295;45.534;20.034;2023-02-12T01:47:14;50.20;;;28.20;;
53401;SDS011;39295;45.534;20.034;2023-02-12T01:52:46;47.50;;;27.60;;
53401;SDS011;39295;45.534;20.034;2023-02-12T01:55:13;49.65;;;28.92;;
53401;SDS011;39295;45.534;20.034;2023-02-12T01:57:40;50.15;;;29.85;;
53401;SDS011;39295;45.534;20.034;2023-02-12T02:00:09;52.08;;;29.77;;
53401;SDS011;39295;45.534;20.034;2023-02-12T02:24:55;50.10;;;28.30;;
53401;SDS011;39295;45.534;20.034;2023-02-12T02:32:54;48.03;;;28.48;;
53401;SDS011;39295;45.534;20.034;2023-02-12T02:35:24;49.53;;;26.83;;
53401;SDS011;39295;45.534;20.034;2023-02-12T02:40:36;46.45;;;26.52;;
53401;SDS011;39295;45.534;20.034;2023-02-12T02:43:05;44.90;;;25.30;;
53401;SDS011;39295;45.534;20.034;2023-02-12T02:50:43;39.47;;;24.08;;
53401;SDS011;39295;45.534;20.034;2023-02-12T02:53:17;41.50;;;24.50;;
53401;SDS011;39295;45.534;20.034;2023-02-12T02:55:49;42.90;;;24.55;;
53401;SDS011;39295;45.534;20.034;2023-02-12T02:58:25;44.30;;;24.33;;
53401;SDS011;39295;45.534;20.034;2023-02-12T03:00:56;44.83;;;24.63;;
53401;SDS011;39295;45.534;20.034;2023-02-12T03:09:22;40.78;;;25.20;;
53401;SDS011;39295;45.534;20.034;2023-02-12T03:11:49;42.25;;;24.45;;
53401;SDS011;39295;45.534;20.034;2023-02-12T03:14:26;44.17;;;25.15;;
53401;SDS011;39295;45.534;20.034;2023-02-12T03:19:52;47.00;;;24.60;;
53401;SDS011;39295;45.534;20.034;2023-02-12T03:22:17;42.33;;;23.98;;
53401;SDS011;39295;45.534;20.034;2023-02-12T04:30:46;39.17;;;22.70;;
53401;SDS011;39295;45.534;20.034;2023-02-12T04:33:14;40.17;;;22.45;;
53401;SDS011;39295;45.534;20.034;2023-02-12T04:35:49;38.58;;;21.30;;
53401;SDS011;39295;45.534;20.034;2023-02-12T04:41:05;36.28;;;21.25;;
53401;SDS011;39295;45.534;20.034;2023-02-12T04:58:17;36.60;;;20.67;;
53401;SDS011;39295;45.534;20.034;2023-02-12T05:00:44;33.67;;;19.70;;
53401;SDS011;39295;45.534;20.034;2023-02-12T05:03:13;38.22;;;20.98;;
53401;SDS011;39295;45.534;20.034;2023-02-12T05:39:06;68.28;;;35.67;;
53401;SDS011;39295;45.534;20.034;2023-02-12T05:41:32;72.65;;;35.88;;
53401;SDS011;39295;45.534;20.034;2023-02-12T05:52:15;53.13;;;29.50;;
53401;SDS011;39295;45.534;20.034;2023-02-12T06:42:52;32.30;;;18.58;;
53401;SDS011;39295;45.534;20.034;2023-02-12T06:45:18;33.72;;;18.67;;
53401;SDS011;39295;45.534;20.034;2023-02-12T06:47:45;34.38;;;19.92;;
53401;SDS011;39295;45.534;20.034;2023-02-12T07:58:56;53.00;;;31.95;;
53401;SDS011;39295;45.534;20.034;2023-02-12T08:01:23;55.33;;;33.75;;
53401;SDS011;39295;45.534;20.034;2023-02-12T08:03:53;58.47;;;34.33;;
53401;SDS011;39295;45.534;20.034;2023-02-12T08:06:21;57.13;;;32.55;;
53401;SDS011;39295;45.534;20.034;2023-02-12T08:09:04;55.50;;;33.38;;
53401;SDS011;39295;45.534;20.034;2023-02-12T08:11:31;54.38;;;31.83;;
53401;SDS011;39295;45.534;20.034;2023-02-12T08:13:58;60.42;;;35.25;;
53401;SDS011;39295;45.534;20.034;2023-02-12T08:16:25;63.03;;;36.50;;
53401;SDS011;39295;45.534;20.034;2023-02-12T08:18:51;58.00;;;34.78;;
53401;SDS011;39295;45.534;20.034;2023-02-12T08:21:18;73.40;;;40.67;;
53401;SDS011;39295;45.534;20.034;2023-02-12T08:23:45;63.65;;;35.60;;
53401;SDS011;39295;45.534;20.034;2023-02-12T08:26:28;54.60;;;32.78;;
53401;SDS011;39295;45.534;20.034;2023-02-12T08:28:55;55.55;;;30.98;;
53401;SDS011;39295;45.534;20.034;2023-02-12T08:31:24;66.93;;;35.50;;
53401;SDS011;39295;45.534;20.034;2023-02-12T08:33:51;61.08;;;36.33;;
53401;SDS011;39295;45.534;20.034;2023-02-12T08:42:25;64.80;;;32.55;;
53401;SDS011;39295;45.534;20.034;2023-02-12T09:24:16;62.05;;;35.17;;
53401;SDS011;39295;45.534;20.034;2023-02-12T09:26:57;57.72;;;34.42;;
53401;SDS011;39295;45.534;20.034;2023-02-12T09:29:26;62.70;;;36.30;;
53401;SDS011;39295;45.534;20.034;2023-02-12T09:31:52;64.10;;;35.35;;
53401;SDS011;39295;45.534;20.034;2023-02-12T09:34:18;67.25;;;37.33;;
53401;SDS011;39295;45.534;20.034;2023-02-12T09:39:49;64.95;;;36.95;;
53401;SDS011;39295;45.534;20.034;2023-02-12T09:45:11;61.67;;;36.83;;
53401;SDS011;39295;45.534;20.034;2023-02-12T09:50:30;70.38;;;38.42;;
53401;SDS011;39295;45.534;20.034;2023-02-12T09:52:58;67.50;;;40.30;;
53401;SDS011;39295;45.534;20.034;2023-02-12T09:55:29;67.13;;;40.38;;
53401;SDS011;39295;45.534;20.034;2023-02-12T09:57:55;75.88;;;40.88;;
53401;SDS011;39295;45.534;20.034;2023-02-12T10:00:26;71.75;;;41.85;;
53401;SDS011;39295;45.534;20.034;2023-02-12T10:02:55;80.90;;;42.55;;
53401;SDS011;39295;45.534;20.034;2023-02-12T10:05:24;78.47;;;41.88;;
53401;SDS011;39295;45.534;20.034;2023-02-12T10:08:25;77.03;;;41.72;;
53401;SDS011;39295;45.534;20.034;2023-02-12T10:13:45;74.97;;;41.88;;
53401;SDS011;39295;45.534;20.034;2023-02-12T10:18:47;78.85;;;44.17;;
53401;SDS011;39295;45.534;20.034;2023-02-12T10:26:30;70.28;;;39.35;;
53401;SDS011;39295;45.534;20.034;2023-02-12T10:28:58;69.72;;;40.17;;
53401;SDS011;39295;45.534;20.034;2023-02-12T10:31:30;70.63;;;40.20;;
53401;SDS011;39295;45.534;20.034;2023-02-12T10:33:57;74.05;;;41.70;;
53401;SDS011;39295;45.534;20.034;2023-02-12T10:36:42;60.85;;;36.08;;
53401;SDS011;39295;45.534;20.034;2023-02-12T10:41:38;58.33;;;35.08;;
53401;SDS011;39295;45.534;20.034;2023-02-12T10:44:08;58.60;;;34.28;;
53401;SDS011;39295;45.534;20.034;2023-02-12T10:46:34;58.92;;;34.83;;
53401;SDS011;39295;45.534;20.034;2023-02-12T10:49:00;56.33;;;33.33;;
53401;SDS011;39295;45.534;20.034;2023-02-12T10:56:58;51.60;;;32.55;;
53401;SDS011;39295;45.534;20.034;2023-02-12T10:59:24;55.53;;;33.58;;
53401;SDS011;39295;45.534;20.034;2023-02-12T11:01:50;56.10;;;34.67;;
53401;SDS011;39295;45.534;20.034;2023-02-12T11:07:02;57.28;;;34.00;;
53401;SDS011;39295;45.534;20.034;2023-02-12T11:09:34;54.95;;;34.33;;
53401;SDS011;39295;45.534;20.034;2023-02-12T11:12:04;56.58;;;35.17;;
53401;SDS011;39295;45.534;20.034;2023-02-12T11:14:39;59.45;;;34.22;;
53401;SDS011;39295;45.534;20.034;2023-02-12T11:17:14;61.65;;;36.50;;
53401;SDS011;39295;45.534;20.034;2023-02-12T11:19:45;59.00;;;33.10;;
53401;SDS011;39295;45.534;20.034;2023-02-12T11:22:26;60.83;;;34.88;;
53401;SDS011;39295;45.534;20.034;2023-02-12T11:24:58;58.47;;;35.03;;
53401;SDS011;39295;45.534;20.034;2023-02-12T11:27:25;54.42;;;30.98;;
53401;SDS011;39295;45.534;20.034;2023-02-12T11:32:37;87.32;;;40.72;;
53401;SDS011;39295;45.534;20.034;2023-02-12T11:35:05;97.78;;;45.35;;
53401;SDS011;39295;45.534;20.034;2023-02-12T11:37:31;54.67;;;30.75;;
53401;SDS011;39295;45.534;20.034;2023-02-12T11:40:00;85.45;;;41.88;;
53401;SDS011;39295;45.534;20.034;2023-02-12T11:42:27;62.78;;;34.55;;
53401;SDS011;39295;45.534;20.034;2023-02-12T11:44:56;58.45;;;32.60;;
53401;SDS011;39295;45.534;20.034;2023-02-12T11:47:31;43.03;;;28.05;;
53401;SDS011;39295;45.534;20.034;2023-02-12T11:50:02;46.92;;;27.27;;
53401;SDS011;39295;45.534;20.034;2023-02-12T11:52:30;64.65;;;37.20;;
53401;SDS011;39295;45.534;20.034;2023-02-12T11:55:00;53.78;;;29.17;;
53401;SDS011;39295;45.534;20.034;2023-02-12T12:00:03;40.97;;;25.95;;
53401;SDS011;39295;45.534;20.034;2023-02-12T12:02:31;36.97;;;23.00;;
53401;SDS011;39295;45.534;20.034;2023-02-12T12:05:05;36.93;;;23.67;;
53401;SDS011;39295;45.534;20.034;2023-02-12T12:07:33;48.85;;;25.25;;
53401;SDS011;39295;45.534;20.034;2023-02-12T12:10:06;38.88;;;24.17;;
53401;SDS011;39295;45.534;20.034;2023-02-12T12:12:37;36.95;;;22.98;;
53401;SDS011;39295;45.534;20.034;2023-02-12T12:21:12;36.80;;;22.85;;
53401;SDS011;39295;45.534;20.034;2023-02-12T12:23:56;37.30;;;22.42;;
53401;SDS011;39295;45.534;20.034;2023-02-12T12:28:59;38.60;;;24.08;;
53401;SDS011;39295;45.534;20.034;2023-02-12T12:31:47;35.55;;;23.65;;
53401;SDS011;39295;45.534;20.034;2023-02-12T12:34:14;35.83;;;23.38;;
53401;SDS011;39295;45.534;20.034;2023-02-12T12:39:51;42.35;;;24.10;;
53401;SDS011;39295;45.534;20.034;2023-02-12T12:42:28;40.75;;;24.02;;
53401;SDS011;39295;45.534;20.034;2023-02-12T12:50:08;73.13;;;38.60;;
53401;SDS011;39295;45.534;20.034;2023-02-12T12:58:22;40.47;;;25.10;;
53401;SDS011;39295;45.534;20.034;2023-02-12T13:03:27;33.75;;;22.67;;
53401;SDS011;39295;45.534;20.034;2023-02-12T13:14:33;34.30;;;21.50;;
53401;SDS011;39295;45.534;20.034;2023-02-12T13:17:02;44.00;;;24.50;;
53401;SDS011;39295;45.534;20.034;2023-02-12T13:19:41;33.88;;;22.08;;
53401;SDS011;39295;45.534;20.034;2023-02-12T13:22:17;28.83;;;20.13;;
53401;SDS011;39295;45.534;20.034;2023-02-12T13:27:35;35.42;;;22.15;;
53401;SDS011;39295;45.534;20.034;2023-02-12T13:35:05;31.20;;;21.40;;
53401;SDS011;39295;45.534;20.034;2023-02-12T13:37:34;32.20;;;21.10;;
53401;SDS011;39295;45.534;20.034;2023-02-12T13:40:05;33.45;;;21.90;;
53401;SDS011;39295;45.534;20.034;2023-02-12T13:45:13;38.10;;;24.17;;
53401;SDS011;39295;45.534;20.034;2023-02-12T13:53:07;38.05;;;24.27;;
53401;SDS011;39295;45.534;20.034;2023-02-12T13:55:53;39.38;;;24.98;;
53401;SDS011;39295;45.534;20.034;2023-02-12T14:01:02;41.33;;;27.17;;
53401;SDS011;39295;45.534;20.034;2023-02-12T14:03:29;43.88;;;27.23;;
53401;SDS011;39295;45.534;20.034;2023-02-12T14:08:41;40.30;;;25.75;;
53401;SDS011;39295;45.534;20.034;2023-02-12T14:11:13;38.63;;;25.35;;
53401;SDS011;39295;45.534;20.034;2023-02-12T14:16:20;36.40;;;23.33;;
53401;SDS011;39295;45.534;20.034;2023-02-12T14:18:46;43.72;;;26.17;;
53401;SDS011;39295;45.534;20.034;2023-02-12T14:26:38;38.50;;;23.55;;
53401;SDS011;39295;45.534;20.034;2023-02-12T14:29:05;36.53;;;23.08;;
53401;SDS011;39295;45.534;20.034;2023-02-12T14:31:41;33.83;;;22.02;;
53401;SDS011;39295;45.534;20.034;2023-02-12T14:47:02;32.88;;;19.80;;
53401;SDS011;39295;45.534;20.034;2023-02-12T14:58:13;38.67;;;21.95;;
53401;SDS011;39295;45.534;20.034;2023-02-12T15:00:41;37.20;;;22.15;;
53401;SDS011;39295;45.534;20.034;2023-02-12T15:06:22;40.53;;;23.55;;
53401;SDS011;39295;45.534;20.034;2023-02-12T15:13:51;35.83;;;22.23;;
53401;SDS011;39295;45.534;20.034;2023-02-12T15:18:50;38.30;;;23.88;;
53401;SDS011;39295;45.534;20.034;2023-02-12T15:26:17;43.22;;;26.70;;
53401;SDS011;39295;45.534;20.034;2023-02-12T15:28:47;39.15;;;25.13;;
53401;SDS011;39295;45.534;20.034;2023-02-12T15:31:15;41.78;;;27.10;;
53401;SDS011;39295;45.534;20.034;2023-02-12T15:33:46;51.78;;;31.38;;
53401;SDS011;39295;45.534;20.034;2023-02-12T15:36:20;54.83;;;33.53;;
53401;SDS011;39295;45.534;20.034;2023-02-12T15:38:56;65.97;;;38.10;;
53401;SDS011;39295;45.534;20.034;2023-02-12T15:41:44;48.85;;;29.95;;
53401;SDS011;39295;45.534;20.034;2023-02-12T15:49:26;44.72;;;27.27;;
53401;SDS011;39295;45.534;20.034;2023-02-12T15:51:52;42.22;;;26.00;;
53401;SDS011;39295;45.534;20.034;2023-02-12T15:54:19;40.15;;;25.88;;
53401;SDS011;39295;45.534;20.034;2023-02-12T15:56:45;72.60;;;38.55;;
53401;SDS011;39295;45.534;20.034;2023-02-12T15:59:21;124.88;;;64.80;;
53401;SDS011;39295;45.534;20.034;2023-02-12T16:01:52;148.50;;;76.72;;
53401;SDS011;39295;45.534;20.034;2023-02-12T16:04:19;133.40;;;69.50;;
53401;SDS011;39295;45.534;20.034;2023-02-12T16:06:45;145.63;;;73.32;;
53401;SDS011;39295;45.534;20.034;2023-02-12T16:09:15;125.85;;;63.47;;
53401;SDS011;39295;45.534;20.034;2023-02-12T16:11:43;96.22;;;50.25;;
53401;SDS011;39295;45.534;20.034;2023-02-12T16:16:55;88.43;;;45.72;;
53401;SDS011;39295;45.534;20.034;2023-02-12T16:21:50;92.80;;;43.53;;
53401;SDS011;39295;45.534;20.034;2023-02-12T16:24:27;94.00;;;44.80;;
53401;SDS011;39295;45.534;20.034;2023-02-12T16:26:55;83.45;;;39.78;;
53401;SDS011;39295;45.534;20.034;2023-02-12T16:29:22;86.95;;;44.15;;
53401;SDS011;39295;45.534;20.034;2023-02-12T16:31:59;105.60;;;52.72;;
53401;SDS011;39295;45.534;20.034;2023-02-12T16:34:27;114.53;;;60.45;;
53401;SDS011;39295;45.534;20.034;2023-02-12T16:36:53;165.10;;;84.10;;
53401;SDS011;39295;45.534;20.034;2023-02-12T16:42:08;187.38;;;81.45;;
53401;SDS011;39295;45.534;20.034;2023-02-12T16:44:39;195.05;;;87.50;;
53401;SDS011;39295;45.534;20.034;2023-02-12T16:47:05;139.52;;;70.97;;
53401;SDS011;39295;45.534;20.034;2023-02-12T16:49:31;150.90;;;76.68;;
53401;SDS011;39295;45.534;20.034;2023-02-12T16:52:19;108.93;;;63.88;;
53401;SDS011;39295;45.534;20.034;2023-02-12T16:54:43;84.88;;;52.03;;
53401;SDS011;39295;45.534;20.034;2023-02-12T16:57:10;97.10;;;52.85;;
53401;SDS011;39295;45.534;20.034;2023-02-12T16:59:36;139.43;;;65.00;;
53401;SDS011;39295;45.534;20.034;2023-02-12T17:02:09;185.63;;;86.38;;
53401;SDS011;39295;45.534;20.034;2023-02-12T17:04:36;196.48;;;90.65;;
53401;SDS011;39295;45.534;20.034;2023-02-12T17:07:02;188.20;;;91.22;;
53401;SDS011;39295;45.534;20.034;2023-02-12T17:09:28;172.95;;;81.18;;
53401;SDS011;39295;45.534;20.034;2023-02-12T17:11:55;152.07;;;78.85;;
53401;SDS011;39295;45.534;20.034;2023-02-12T17:14:21;125.15;;;73.47;;
53401;SDS011;39295;45.534;20.034;2023-02-12T17:16:47;117.82;;;72.40;;
53401;SDS011;39295;45.534;20.034;2023-02-12T17:19:13;116.57;;;71.28;;
53401;SDS011;39295;45.534;20.034;2023-02-12T17:21:40;120.25;;;73.30;;
53401;SDS011;39295;45.534;20.034;2023-02-12T17:24:20;129.77;;;69.28;;
53401;SDS011;39295;45.534;20.034;2023-02-12T17:26:46;131.88;;;64.55;;
53401;SDS011;39295;45.534;20.034;2023-02-12T17:29:14;130.73;;;64.90;;
53401;SDS011;39295;45.534;20.034;2023-02-12T17:31:40;142.82;;;65.90;;
53401;SDS011;39295;45.534;20.034;2023-02-12T17:34:06;147.85;;;69.72;;
53401;SDS011;39295;45.534;20.034;2023-02-12T17:36:33;140.30;;;67.10;;
53401;SDS011;39295;45.534;20.034;2023-02-12T17:38:59;138.82;;;67.70;;
53401;SDS011;39295;45.534;20.034;2023-02-12T17:41:25;146.35;;;70.28;;
53401;SDS011;39295;45.534;20.034;2023-02-12T17:43:51;139.25;;;69.40;;
53401;SDS011;39295;45.534;20.034;2023-02-12T17:46:18;138.60;;;69.05;;
53401;SDS011;39295;45.534;20.034;2023-02-12T17:48:44;130.88;;;67.05;;
53401;SDS011;39295;45.534;20.034;2023-02-12T17:51:10;126.05;;;64.55;;
53401;SDS011;39295;45.534;20.034;2023-02-12T17:56:41;129.98;;;65.28;;
53401;SDS011;39295;45.534;20.034;2023-02-12T17:59:08;136.43;;;66.07;;
53401;SDS011;39295;45.534;20.034;2023-02-12T18:01:34;124.18;;;63.20;;
53401;SDS011;39295;45.534;20.034;2023-02-12T18:04:00;128.70;;;61.97;;
53401;SDS011;39295;45.534;20.034;2023-02-12T18:06:27;130.07;;;61.95;;
53401;SDS011;39295;45.534;20.034;2023-02-12T18:08:55;125.93;;;59.78;;
53401;SDS011;39295;45.534;20.034;2023-02-12T18:11:21;118.90;;;57.80;;
53401;SDS011;39295;45.534;20.034;2023-02-12T18:13:50;114.97;;;56.72;;
53401;SDS011;39295;45.534;20.034;2023-02-12T18:16:16;118.60;;;56.97;;
53401;SDS011;39295;45.534;20.034;2023-02-12T18:18:43;105.93;;;53.28;;
53401;SDS011;39295;45.534;20.034;2023-02-12T18:21:10;110.80;;;54.35;;
53401;SDS011;39295;45.534;20.034;2023-02-12T18:23:37;143.27;;;62.30;;
53401;SDS011;39295;45.534;20.034;2023-02-12T18:26:04;181.13;;;74.85;;
53401;SDS011;39295;45.534;20.034;2023-02-12T18:28:30;211.73;;;85.40;;
53401;SDS011;39295;45.534;20.034;2023-02-12T18:30:56;216.15;;;89.30;;
53401;SDS011;39295;45.534;20.034;2023-02-12T18:33:23;177.73;;;79.10;;
53401;SDS011;39295;45.534;20.034;2023-02-12T18:36:00;158.15;;;72.78;;
53401;SDS011;39295;45.534;20.034;2023-02-12T18:41:22;139.38;;;62.47;;
53401;SDS011;39295;45.534;20.034;2023-02-12T18:43:48;127.28;;;59.38;;
53401;SDS011;39295;45.534;20.034;2023-02-12T18:46:19;119.93;;;60.13;;
53401;SDS011;39295;45.534;20.034;2023-02-12T18:48:47;137.90;;;65.45;;
53401;SDS011;39295;45.534;20.034;2023-02-12T18:51:13;103.65;;;54.13;;
53401;SDS011;39295;45.534;20.034;2023-02-12T18:56:44;87.18;;;49.33;;
53401;SDS011;39295;45.534;20.034;2023-02-12T18:59:12;106.07;;;50.05;;
53401;SDS011;39295;45.534;20.034;2023-02-12T19:01:39;149.77;;;57.70;;
53401;SDS011;39295;45.534;20.034;2023-02-12T19:04:06;204.05;;;65.65;;
53401;SDS011;39295;45.534;20.034;2023-02-12T19:06:36;242.13;;;69.05;;
53401;SDS011;39295;45.534;20.034;2023-02-12T19:12:06;283.73;;;80.25;;
53401;SDS011;39295;45.534;20.034;2023-02-12T19:14:33;264.52;;;77.28;;
53401;SDS011;39295;45.534;20.034;2023-02-12T19:16:59;261.63;;;76.15;;
53401;SDS011;39295;45.534;20.034;2023-02-12T19:19:25;251.43;;;76.35;;
53401;SDS011;39295;45.534;20.034;2023-02-12T19:21:51;316.88;;;89.15;;
53401;SDS011;39295;45.534;20.034;2023-02-12T19:24:33;284.08;;;86.43;;
53401;SDS011;39295;45.534;20.034;2023-02-12T19:26:59;246.57;;;82.05;;
53401;SDS011;39295;45.534;20.034;2023-02-12T19:29:25;179.60;;;71.25;;
53401;SDS011;39295;45.534;20.034;2023-02-12T19:31:52;173.95;;;72.00;;
53401;SDS011;39295;45.534;20.034;2023-02-12T19:34:19;177.45;;;72.35;;
53401;SDS011;39295;45.534;20.034;2023-02-12T19:36:47;219.85;;;83.65;;
53401;SDS011;39295;45.534;20.034;2023-02-12T19:39:14;203.90;;;79.38;;
53401;SDS011;39295;45.534;20.034;2023-02-12T19:41:41;154.00;;;67.55;;
53401;SDS011;39295;45.534;20.034;2023-02-12T19:44:12;140.48;;;64.60;;
53401;SDS011;39295;45.534;20.034;2023-02-12T19:46:39;132.98;;;60.50;;
53401;SDS011;39295;45.534;20.034;2023-02-12T19:49:06;116.63;;;57.25;;
53401;SDS011;39295;45.534;20.034;2023-02-12T19:51:32;102.68;;;51.00;;
53401;SDS011;39295;45.534;20.034;2023-02-12T19:57:02;83.05;;;43.00;;
53401;SDS011;39295;45.534;20.034;2023-02-12T19:59:33;78.15;;;41.60;;
53401;SDS011;39295;45.534;20.034;2023-02-12T20:02:00;90.18;;;46.05;;
53401;SDS011;39295;45.534;20.034;2023-02-12T20:04:26;74.30;;;43.30;;
53401;SDS011;39295;45.534;20.034;2023-02-12T20:06:52;79.80;;;42.45;;
53401;SDS011;39295;45.534;20.034;2023-02-12T20:12:40;77.88;;;42.70;;
53401;SDS011;39295;45.534;20.034;2023-02-12T20:15:07;79.45;;;43.97;;
53401;SDS011;39295;45.534;20.034;2023-02-12T20:17:33;78.30;;;42.72;;
53401;SDS011;39295;45.534;20.034;2023-02-12T20:19:59;74.93;;;43.40;;
53401;SDS011;39295;45.534;20.034;2023-02-12T20:22:25;76.38;;;41.80;;
53401;SDS011;39295;45.534;20.034;2023-02-12T20:24:51;76.90;;;41.90;;
53401;SDS011;39295;45.534;20.034;2023-02-12T20:27:17;73.40;;;40.00;;
53401;SDS011;39295;45.534;20.034;2023-02-12T20:29:43;73.22;;;40.30;;
53401;SDS011;39295;45.534;20.034;2023-02-12T20:32:09;73.00;;;39.95;;
53401;SDS011;39295;45.534;20.034;2023-02-12T20:34:36;75.38;;;41.00;;
53401;SDS011;39295;45.534;20.034;2023-02-12T20:37:03;74.97;;;40.83;;
53401;SDS011;39295;45.534;20.034;2023-02-12T20:45:34;85.47;;;44.60;;
53401;SDS011;39295;45.534;20.034;2023-02-12T20:48:00;80.15;;;43.60;;
53401;SDS011;39295;45.534;20.034;2023-02-12T20:50:26;89.18;;;42.95;;
53401;SDS011;39295;45.534;20.034;2023-02-12T20:52:52;85.25;;;44.22;;
53401;SDS011;39295;45.534;20.034;2023-02-12T20:58:03;110.55;;;49.78;;
53401;SDS011;39295;45.534;20.034;2023-02-12T21:00:29;116.07;;;50.67;;
53401;SDS011;39295;45.534;20.034;2023-02-12T21:02:55;107.80;;;47.47;;
53401;SDS011;39295;45.534;20.034;2023-02-12T21:05:23;95.03;;;45.38;;
53401;SDS011;39295;45.534;20.034;2023-02-12T21:07:49;88.43;;;44.67;;
53401;SDS011;39295;45.534;20.034;2023-02-12T21:10:33;87.18;;;42.17;;
53401;SDS011;39295;45.534;20.034;2023-02-12T21:12:59;89.85;;;42.25;;
53401;SDS011;39295;45.534;20.034;2023-02-12T21:15:25;98.13;;;43.22;;
53401;SDS011;39295;45.534;20.034;2023-02-12T21:17:51;81.38;;;40.97;;
53401;SDS011;39295;45.534;20.034;2023-02-12T21:20:17;83.68;;;40.20;;
53401;SDS011;39295;45.534;20.034;2023-02-12T21:22:44;93.50;;;42.75;;
53401;SDS011;39295;45.534;20.034;2023-02-12T21:25:10;97.85;;;46.90;;
53401;SDS011;39295;45.534;20.034;2023-02-12T21:27:36;95.97;;;45.08;;
53401;SDS011;39295;45.534;20.034;2023-02-12T21:30:05;91.88;;;45.08;;
53401;SDS011;39295;45.534;20.034;2023-02-12T21:32:31;75.85;;;37.67;;
53401;SDS011;39295;45.534;20.034;2023-02-12T21:34:57;83.28;;;41.85;;
53401;SDS011;39295;45.534;20.034;2023-02-12T21:37:23;79.97;;;41.42;;
53401;SDS011;39295;45.534;20.034;2023-02-12T21:42:34;79.47;;;38.17;;
53401;SDS011;39295;45.534;20.034;2023-02-12T21:45:00;75.93;;;38.40;;
53401;SDS011;39295;45.534;20.034;2023-02-12T21:47:26;76.63;;;37.20;;
53401;SDS011;39295;45.534;20.034;2023-02-12T21:49:52;75.38;;;38.08;;
53401;SDS011;39295;45.534;20.034;2023-02-12T21:52:18;67.18;;;35.95;;
53401;SDS011;39295;45.534;20.034;2023-02-12T22:00:48;80.95;;;43.28;;
53401;SDS011;39295;45.534;20.034;2023-02-12T22:03:15;83.90;;;45.15;;
53401;SDS011;39295;45.534;20.034;2023-02-12T22:05:43;87.53;;;48.88;;
53401;SDS011;39295;45.534;20.034;2023-02-12T22:08:09;76.93;;;44.17;;
53401;SDS011;39295;45.534;20.034;2023-02-12T22:16:24;93.53;;;50.65;;
53401;SDS011;39295;45.534;20.034;2023-02-12T22:18:51;93.90;;;51.28;;
53401;SDS011;39295;45.534;20.034;2023-02-12T22:21:19;92.35;;;50.72;;
53401;SDS011;39295;45.534;20.034;2023-02-12T22:23:46;94.47;;;49.88;;
53401;SDS011;39295;45.534;20.034;2023-02-12T22:28:39;89.13;;;48.58;;
53401;SDS011;39295;45.534;20.034;2023-02-12T22:31:06;92.95;;;51.13;;
53401;SDS011;39295;45.534;20.034;2023-02-12T22:33:32;102.78;;;54.65;;
53401;SDS011;39295;45.534;20.034;2023-02-12T22:36:02;123.45;;;61.38;;
53401;SDS011;39295;45.534;20.034;2023-02-12T22:38:29;106.10;;;55.50;;
53401;SDS011;39295;45.534;20.034;2023-02-12T22:40:55;120.18;;;59.60;;
53401;SDS011;39295;45.534;20.034;2023-02-12T22:43:21;114.22;;;60.17;;
53401;SDS011;39295;45.534;20.034;2023-02-12T22:45:47;121.63;;;61.13;;
53401;SDS011;39295;45.534;20.034;2023-02-12T22:48:13;118.57;;;58.72;;
53401;SDS011;39295;45.534;20.034;2023-02-12T22:50:40;123.32;;;59.85;;
53401;SDS011;39295;45.534;20.034;2023-02-12T22:53:06;129.18;;;62.67;;
53401;SDS011;39295;45.534;20.034;2023-02-12T22:55:34;118.65;;;58.78;;
53401;SDS011;39295;45.534;20.034;2023-02-12T22:58:00;116.28;;;59.03;;
53401;SDS011;39295;45.534;20.034;2023-02-12T23:00:26;122.93;;;60.38;;
53401;SDS011;39295;45.534;20.034;2023-02-12T23:02:52;115.63;;;56.55;;
53401;SDS011;39295;45.534;20.034;2023-02-12T23:05:19;114.55;;;58.80;;
53401;SDS011;39295;45.534;20.034;2023-02-12T23:07:45;130.27;;;66.15;;
53401;SDS011;39295;45.534;20.034;2023-02-12T23:10:11;112.80;;;58.65;;
53401;SDS011;39295;45.534;20.034;2023-02-12T23:12:37;119.25;;;61.95;;
53401;SDS011;39295;45.534;20.034;2023-02-12T23:15:03;124.18;;;63.25;;
53401;SDS011;39295;45.534;20.034;2023-02-12T23:17:29;130.90;;;66.50;;
53401;SDS011;39295;45.534;20.034;2023-02-12T23:19:55;128.20;;;67.15;;
53401;SDS011;39295;45.534;20.034;2023-02-12T23:22:21;124.32;;;62.38;;
53401;SDS011;39295;45.534;20.034;2023-02-12T23:24:47;113.20;;;57.47;;
53401;SDS011;39295;45.534;20.034;2023-02-12T23:27:13;102.68;;;53.10;;
53401;SDS011;39295;45.534;20.034;2023-02-12T23:29:39;109.22;;;57.05;;
53401;SDS011;39295;45.534;20.034;2023-02-12T23:32:06;181.27;;;89.65;;